sensor_id;sensor_type;location;lat;lon;timestamp;P1;durP1;ratioP1;P2;durP2;ratioP2
12072;SDS011;6098;49.004;8.372;2022-08-21T00:00:00;4.56;;;2.67;;
12072;SDS011;6098;49.004;8.372;2022-08-21T00:14:51;3.84;;;2.32;;
12072;SDS011;6098;49.004;8.372;2022-08-21T00:44:44;3.46;;;2.24;;
12072;SDS011;6098;49.004;8.372;2022-08-21T00:59:35;4.87;;;2.26;;
12072;SDS011;6098;49.004;8.372;2022-08-21T01:14:25;4.22;;;2.70;;
12072;SDS011;6098;49.004;8.372;2022-08-21T01:29:20;3.68;;;2.49;;
12072;SDS011;6098;49.004;8.372;2022-08-21T01:44:20;3.19;;;2.79;;
12072;SDS011;6098;49.004;8.372;2022-08-21T01:59:09;4.48;;;2.50;;
12072;SDS011;6098;49.004;8.372;2022-08-21T02:13:59;3.04;;;2.62;;
12072;SDS011;6098;49.004;8.372;2022-08-21T02:28:51;5.38;;;2.46;;
12072;SDS011;6098;49.004;8.372;2022-08-21T02:43:42;7.21;;;2.73;;
12072;SDS011;6098;49.004;8.372;2022-08-21T02:58:34;6.40;;;2.83;;
12072;SDS011;6098;49.004;8.372;2022-08-21T03:13:24;5.11;;;2.64;;
12072;SDS011;6098;49.004;8.372;2022-08-21T03:28:18;6.53;;;2.99;;
12072;SDS011;6098;49.004;8.372;2022-08-21T03:43:07;5.70;;;3.07;;
12072;SDS011;6098;49.004;8.372;2022-08-21T03:57:58;4.04;;;2.70;;
12072;SDS011;6098;49.004;8.372;2022-08-21T04:12:52;5.97;;;2.98;;
12072;SDS011;6098;49.004;8.372;2022-08-21T04:27:43;5.64;;;3.30;;
12072;SDS011;6098;49.004;8.372;2022-08-21T04:42:39;11.07;;;3.00;;
12072;SDS011;6098;49.004;8.372;2022-08-21T04:57:26;3.94;;;3.07;;
12072;SDS011;6098;49.004;8.372;2022-08-21T05:12:17;4.51;;;2.81;;
12072;SDS011;6098;49.004;8.372;2022-08-21T05:27:09;4.70;;;2.74;;
12072;SDS011;6098;49.004;8.372;2022-08-21T05:42:01;6.90;;;3.00;;
12072;SDS011;6098;49.004;8.372;2022-08-21T05:56:52;3.69;;;3.00;;
12072;SDS011;6098;49.004;8.372;2022-08-21T06:11:44;5.62;;;3.37;;
12072;SDS011;6098;49.004;8.372;2022-08-21T06:26:37;6.24;;;3.66;;
12072;SDS011;6098;49.004;8.372;2022-08-21T06:41:30;6.20;;;3.06;;
12072;SDS011;6098;49.004;8.372;2022-08-21T06:56:26;3.50;;;2.63;;
12072;SDS011;6098;49.004;8.372;2022-08-21T07:11:22;4.26;;;2.94;;
12072;SDS011;6098;49.004;8.372;2022-08-21T07:26:15;5.60;;;3.03;;
12072;SDS011;6098;49.004;8.372;2022-08-21T07:41:16;6.98;;;2.94;;
12072;SDS011;6098;49.004;8.372;2022-08-21T07:56:07;6.58;;;2.79;;
12072;SDS011;6098;49.004;8.372;2022-08-21T08:10:59;5.74;;;2.65;;
12072;SDS011;6098;49.004;8.372;2022-08-21T08:25:52;7.91;;;2.96;;
12072;SDS011;6098;49.004;8.372;2022-08-21T08:55:43;5.37;;;3.17;;
12072;SDS011;6098;49.004;8.372;2022-08-21T09:10:39;8.11;;;3.19;;
12072;SDS011;6098;49.004;8.372;2022-08-21T09:25:34;4.41;;;2.96;;
12072;SDS011;6098;49.004;8.372;2022-08-21T09:55:38;7.80;;;3.17;;
12072;SDS011;6098;49.004;8.372;2022-08-21T10:10:57;4.69;;;2.86;;
12072;SDS011;6098;49.004;8.372;2022-08-21T10:25:52;4.95;;;3.05;;
12072;SDS011;6098;49.004;8.372;2022-08-21T10:55:59;5.14;;;2.55;;
12072;SDS011;6098;49.004;8.372;2022-08-21T11:10:50;5.34;;;2.71;;
12072;SDS011;6098;49.004;8.372;2022-08-21T11:26:00;4.00;;;2.30;;
12072;SDS011;6098;49.004;8.372;2022-08-21T11:55:49;5.99;;;2.49;;
12072;SDS011;6098;49.004;8.372;2022-08-21T12:10:58;5.06;;;2.48;;
12072;SDS011;6098;49.004;8.372;2022-08-21T12:25:46;3.01;;;2.12;;
12072;SDS011;6098;49.004;8.372;2022-08-21T12:40:43;3.81;;;2.23;;
12072;SDS011;6098;49.004;8.372;2022-08-21T12:55:34;3.83;;;2.29;;
12072;SDS011;6098;49.004;8.372;2022-08-21T13:10:28;2.91;;;2.42;;
12072;SDS011;6098;49.004;8.372;2022-08-21T13:25:20;3.52;;;2.52;;
12072;SDS011;6098;49.004;8.372;2022-08-21T13:40:14;3.22;;;2.40;;
12072;SDS011;6098;49.004;8.372;2022-08-21T13:55:09;3.74;;;2.20;;
12072;SDS011;6098;49.004;8.372;2022-08-21T14:40:11;3.26;;;2.06;;
12072;SDS011;6098;49.004;8.372;2022-08-21T14:55:05;3.10;;;2.23;;
12072;SDS011;6098;49.004;8.372;2022-08-21T15:10:00;3.67;;;2.11;;
12072;SDS011;6098;49.004;8.372;2022-08-21T15:24:54;3.53;;;2.24;;
12072;SDS011;6098;49.004;8.372;2022-08-21T15:39:49;4.11;;;2.04;;
12072;SDS011;6098;49.004;8.372;2022-08-21T15:54:37;3.81;;;2.22;;
12072;SDS011;6098;49.004;8.372;2022-08-21T16:43:23;3.02;;;2.22;;
12072;SDS011;6098;49.004;8.372;2022-08-21T16:59:38;3.84;;;2.40;;
12072;SDS011;6098;49.004;8.372;2022-08-21T17:31:05;2.62;;;2.10;;
12072;SDS011;6098;49.004;8.372;2022-08-21T18:46:59;6.33;;;3.12;;
12072;SDS011;6098;49.004;8.372;2022-08-21T19:01:51;6.32;;;3.87;;
12072;SDS011;6098;49.004;8.372;2022-08-21T19:16:42;7.24;;;3.69;;
12072;SDS011;6098;49.004;8.372;2022-08-21T19:31:34;7.46;;;3.61;;
12072;SDS011;6098;49.004;8.372;2022-08-21T20:01:24;7.81;;;4.20;;
12072;SDS011;6098;49.004;8.372;2022-08-21T20:16:14;8.61;;;3.37;;
12072;SDS011;6098;49.004;8.372;2022-08-21T20:31:06;7.47;;;3.55;;
12072;SDS011;6098;49.004;8.372;2022-08-21T20:45:57;5.32;;;2.87;;
12072;SDS011;6098;49.004;8.372;2022-08-21T21:00:48;4.70;;;3.62;;
12072;SDS011;6098;49.004;8.372;2022-08-21T21:15:40;6.26;;;3.91;;
12072;SDS011;6098;49.004;8.372;2022-08-21T21:30:33;5.47;;;3.80;;
12072;SDS011;6098;49.004;8.372;2022-08-21T21:45:24;6.31;;;3.56;;
12072;SDS011;6098;49.004;8.372;2022-08-21T22:00:38;6.79;;;3.09;;
12072;SDS011;6098;49.004;8.372;2022-08-21T22:15:45;3.87;;;2.94;;
12072;SDS011;6098;49.004;8.372;2022-08-21T22:30:48;3.96;;;3.12;;
12072;SDS011;6098;49.004;8.372;2022-08-21T22:46:00;5.54;;;3.03;;
12072;SDS011;6098;49.004;8.372;2022-08-21T23:01:12;5.34;;;2.96;;
